Time;durP1;ratioP1;P1;durP2;ratioP2;P2;SDS_P1;SDS_P2;PMS_P1;PMS_P2;Temp;Humidity;BMP_temperature;BMP_pressure;BME280_temperature;BME280_humidity;BME280_pressure;Samples;Min_cycle;Max_cycle;Signal;HPM_P1;HPM_P2
2023/03/04 00:00:42;;;;;;;37.43;20.83;;;;;;;;;;5064772;28;20239;-52
2023/03/04 00:03:09;;;;;;;33.87;18.17;;;;;;;;;;5063347;28;20241;-52
2023/03/04 00:05:36;;;;;;;29.00;17.63;;;;;;;;;;5065527;28;20911;-51
2023/03/04 00:08:03;;;;;;;28.53;17.40;;;;;;;;;;5061770;28;20323;-52
2023/03/04 00:10:31;;;;;;;28.43;18.83;;;;;;;;;;5064323;28;20266;-51
2023/03/04 00:12:57;;;;;;;37.33;18.13;;;;;;;;;;5063185;28;20329;-51
2023/03/04 00:15:23;;;;;;;29.53;17.27;;;;;;;;;;5065338;28;20230;-52
2023/03/04 00:17:50;;;;;;;32.70;17.47;;;;;;;;;;5064450;28;20378;-51
2023/03/04 00:20:16;;;;;;;34.27;18.50;;;;;;;;;;5065979;28;20233;-51
2023/03/04 00:22:43;;;;;;;32.67;17.63;;;;;;;;;;5057968;28;20240;-51
2023/03/04 00:25:09;;;;;;;31.50;17.57;;;;;;;;;;5066011;28;20230;-52
2023/03/04 00:27:37;;;;;;;28.03;18.07;;;;;;;;;;5062017;28;20886;-52
2023/03/04 00:30:05;;;;;;;33.00;18.00;;;;;;;;;;5065742;28;20293;-52
2023/03/04 00:32:31;;;;;;;28.53;17.97;;;;;;;;;;5062845;28;20307;-52
2023/03/04 00:34:57;;;;;;;24.87;15.80;;;;;;;;;;5064580;28;20353;-51
2023/03/04 00:37:24;;;;;;;32.63;17.43;;;;;;;;;;5062702;28;20521;-51
2023/03/04 00:39:50;;;;;;;32.40;18.13;;;;;;;;;;5065132;28;20732;-52
2023/03/04 00:42:17;;;;;;;28.80;16.73;;;;;;;;;;5063757;28;20238;-52
2023/03/04 00:44:45;;;;;;;29.80;16.80;;;;;;;;;;5056831;28;20583;-52
2023/03/04 00:47:11;;;;;;;35.40;17.77;;;;;;;;;;5064640;28;20264;-51
2023/03/04 00:49:38;;;;;;;28.30;16.20;;;;;;;;;;5065355;28;20266;-52
2023/03/04 00:52:04;;;;;;;25.80;16.57;;;;;;;;;;5065133;28;20813;-52
2023/03/04 00:54:31;;;;;;;32.13;17.00;;;;;;;;;;5065399;28;20560;-51
2023/03/04 00:56:57;;;;;;;27.63;16.63;;;;;;;;;;5063769;28;20789;-51
2023/03/04 00:59:24;;;;;;;29.60;15.60;;;;;;;;;;5059675;28;20230;-51
2023/03/04 01:01:52;;;;;;;28.60;15.43;;;;;;;;;;5064073;28;20273;-51
2023/03/04 01:04:18;;;;;;;25.67;14.43;;;;;;;;;;5061989;28;20279;-52
2023/03/04 01:06:45;;;;;;;32.57;14.07;;;;;;;;;;5063993;28;20235;-52
2023/03/04 01:09:11;;;;;;;20.20;12.07;;;;;;;;;;5062468;28;20246;-52
2023/03/04 01:11:38;;;;;;;25.77;13.87;;;;;;;;;;5063267;28;20327;-52
2023/03/04 01:14:04;;;;;;;21.33;12.93;;;;;;;;;;5058300;28;20252;-51
2023/03/04 01:16:31;;;;;;;24.67;12.87;;;;;;;;;;5063357;28;20324;-52
2023/03/04 01:18:59;;;;;;;21.60;11.00;;;;;;;;;;5062952;28;20647;-51
2023/03/04 01:21:26;;;;;;;21.47;10.93;;;;;;;;;;5062617;28;20242;-52
2023/03/04 01:23:52;;;;;;;19.27;9.60;;;;;;;;;;5063400;28;20258;-52
2023/03/04 01:26:19;;;;;;;20.47;11.67;;;;;;;;;;5064519;28;20318;-51
2023/03/04 01:28:45;;;;;;;20.07;10.47;;;;;;;;;;5063865;28;20716;-51
2023/03/04 01:31:12;;;;;;;18.90;10.03;;;;;;;;;;5064393;28;20238;-52
2023/03/04 01:33:38;;;;;;;19.00;9.53;;;;;;;;;;5062313;28;20238;-52
2023/03/04 01:36:07;;;;;;;18.63;10.17;;;;;;;;;;5064152;28;20314;-53
2023/03/04 01:38:33;;;;;;;19.10;9.20;;;;;;;;;;5062644;28;20308;-51
2023/03/04 01:41:00;;;;;;;25.63;9.33;;;;;;;;;;5064444;28;20300;-51
2023/03/04 01:43:28;;;;;;;23.57;10.17;;;;;;;;;;5063750;28;20245;-51
2023/03/04 01:45:55;;;;;;;21.17;9.93;;;;;;;;;;5062779;28;20235;-52
2023/03/04 01:48:24;;;;;;;24.23;11.80;;;;;;;;;;5063553;28;20246;-51
2023/03/04 01:50:51;;;;;;;23.90;9.27;;;;;;;;;;5064667;28;20325;-52
2023/03/04 01:53:21;;;;;;;23.20;9.53;;;;;;;;;;5064358;28;20296;-52
2023/03/04 01:55:47;;;;;;;16.67;7.90;;;;;;;;;;5064576;28;20248;-52
2023/03/04 01:58:14;;;;;;;18.23;8.30;;;;;;;;;;5064359;28;20234;-51
2023/03/04 02:00:41;;;;;;;21.30;8.23;;;;;;;;;;5065184;28;20226;-53
2023/03/04 02:03:10;;;;;;;16.40;10.97;;;;;;;;;;5061631;28;20253;-52
2023/03/04 02:05:37;;;;;;;19.10;8.60;;;;;;;;;;5063614;28;20313;-52
2023/03/04 02:08:04;;;;;;;22.67;8.80;;;;;;;;;;5059911;28;20777;-52
2023/03/04 02:10:33;;;;;;;18.50;7.67;;;;;;;;;;5064284;28;20783;-52
2023/03/04 02:13:00;;;;;;;16.53;6.77;;;;;;;;;;5063600;28;20325;-52
2023/03/04 02:15:27;;;;;;;15.53;8.10;;;;;;;;;;5062869;28;20785;-52
2023/03/04 02:17:54;;;;;;;17.30;7.37;;;;;;;;;;5062445;28;20242;-52
2023/03/04 02:20:25;;;;;;;13.67;8.20;;;;;;;;;;5063879;28;20237;-52
2023/03/04 02:22:56;;;;;;;15.57;7.20;;;;;;;;;;5063953;28;20952;-51
2023/03/04 02:25:27;;;;;;;20.27;6.57;;;;;;;;;;5063678;28;20828;-52
2023/03/04 02:27:55;;;;;;;17.60;7.50;;;;;;;;;;5057773;28;20617;-52
2023/03/04 02:30:24;;;;;;;13.50;6.70;;;;;;;;;;5059730;28;20236;-52
2023/03/04 02:32:50;;;;;;;13.43;7.10;;;;;;;;;;5063055;28;20242;-53
2023/03/04 02:35:17;;;;;;;15.73;6.40;;;;;;;;;;5063198;28;20380;-51
2023/03/04 02:37:44;;;;;;;11.23;6.83;;;;;;;;;;5063339;28;20234;-52
2023/03/04 02:40:14;;;;;;;12.23;6.33;;;;;;;;;;5063715;28;20580;-51
2023/03/04 02:42:42;;;;;;;15.57;6.33;;;;;;;;;;5062884;28;20238;-51
2023/03/04 02:45:24;;;;;;;9.50;6.33;;;;;;;;;;5061390;28;20355;-51
2023/03/04 02:47:52;;;;;;;15.80;5.90;;;;;;;;;;5061615;28;20299;-51
2023/03/04 02:50:18;;;;;;;17.40;8.20;;;;;;;;;;5064006;28;20260;-51
2023/03/04 02:52:45;;;;;;;19.33;7.27;;;;;;;;;;5064840;28;20321;-52
2023/03/04 02:55:11;;;;;;;17.37;6.37;;;;;;;;;;5060435;28;20724;-52
2023/03/04 02:57:38;;;;;;;20.30;7.03;;;;;;;;;;5059624;28;20231;-51
2023/03/04 03:00:05;;;;;;;9.80;5.23;;;;;;;;;;5063594;28;20230;-52
2023/03/04 03:02:31;;;;;;;21.10;7.13;;;;;;;;;;5061230;28;20235;-53
2023/03/04 03:04:59;;;;;;;10.40;6.27;;;;;;;;;;5064430;28;20333;-52
2023/03/04 03:07:26;;;;;;;10.13;5.67;;;;;;;;;;5063035;28;20246;-51
2023/03/04 03:09:52;;;;;;;12.63;6.17;;;;;;;;;;5063250;28;20311;-53
2023/03/04 03:12:19;;;;;;;14.77;6.00;;;;;;;;;;5060237;28;20332;-52
2023/03/04 03:14:45;;;;;;;18.47;6.23;;;;;;;;;;5064221;28;20781;-52
2023/03/04 03:17:12;;;;;;;13.27;6.43;;;;;;;;;;5063070;28;20233;-51
2023/03/04 03:19:38;;;;;;;15.83;6.97;;;;;;;;;;5062429;28;20249;-51
2023/03/04 03:22:06;;;;;;;12.57;6.00;;;;;;;;;;5062551;28;20236;-52
2023/03/04 03:24:33;;;;;;;11.50;6.30;;;;;;;;;;5061346;28;20776;-51
2023/03/04 03:27:00;;;;;;;10.27;5.43;;;;;;;;;;5065934;28;20233;-51
2023/03/04 03:29:26;;;;;;;8.97;5.50;;;;;;;;;;5066124;28;20227;-52
2023/03/04 03:31:53;;;;;;;14.17;5.90;;;;;;;;;;5066783;28;20817;-52
2023/03/04 03:34:19;;;;;;;13.03;5.90;;;;;;;;;;5065614;28;20260;-51
2023/03/04 03:36:46;;;;;;;11.17;5.07;;;;;;;;;;5067509;28;20223;-51
2023/03/04 03:39:15;;;;;;;12.20;6.13;;;;;;;;;;5065019;28;20230;-52
2023/03/04 03:41:42;;;;;;;13.87;5.47;;;;;;;;;;5066732;28;20241;-52
2023/03/04 03:44:08;;;;;;;21.07;5.30;;;;;;;;;;5065684;28;20234;-52
2023/03/04 03:46:35;;;;;;;8.57;4.50;;;;;;;;;;5066640;28;20227;-51
2023/03/04 03:49:01;;;;;;;12.83;4.93;;;;;;;;;;5066165;28;20242;-52
2023/03/04 03:51:28;;;;;;;11.93;5.77;;;;;;;;;;5066613;28;20239;-51
2023/03/04 03:53:54;;;;;;;11.77;5.27;;;;;;;;;;5063206;28;20234;-51
2023/03/04 03:56:22;;;;;;;10.07;4.60;;;;;;;;;;5066614;28;20231;-52
2023/03/04 03:58:49;;;;;;;11.37;5.87;;;;;;;;;;5063479;28;20231;-52
2023/03/04 04:01:16;;;;;;;12.47;5.07;;;;;;;;;;5065951;28;20264;-51
2023/03/04 04:03:42;;;;;;;11.43;5.53;;;;;;;;;;5066969;28;20934;-51
2023/03/04 04:06:09;;;;;;;11.37;5.13;;;;;;;;;;5066652;28;20709;-52
2023/03/04 04:08:35;;;;;;;16.43;5.03;;;;;;;;;;5065921;28;20257;-51
2023/03/04 04:11:02;;;;;;;10.97;5.00;;;;;;;;;;5066239;28;20233;-51
2023/03/04 04:13:30;;;;;;;10.77;4.97;;;;;;;;;;5066487;28;20230;-52
2023/03/04 04:15:58;;;;;;;12.77;5.73;;;;;;;;;;5066018;28;20612;-51
2023/03/04 04:18:25;;;;;;;18.20;6.83;;;;;;;;;;5064454;28;20226;-51
2023/03/04 04:20:52;;;;;;;9.70;4.73;;;;;;;;;;5065761;28;20916;-51
2023/03/04 04:23:18;;;;;;;14.57;4.30;;;;;;;;;;5065577;28;20285;-51
2023/03/04 04:25:45;;;;;;;15.37;4.87;;;;;;;;;;5065751;28;20234;-51
2023/03/04 04:28:11;;;;;;;11.73;4.23;;;;;;;;;;5063256;28;20231;-50
2023/03/04 04:30:39;;;;;;;19.93;5.33;;;;;;;;;;5065580;28;20238;-52
2023/03/04 04:33:06;;;;;;;9.67;4.67;;;;;;;;;;5065189;28;20235;-51
2023/03/04 04:35:34;;;;;;;10.13;4.90;;;;;;;;;;5065260;28;20312;-51
2023/03/04 04:38:01;;;;;;;9.40;3.83;;;;;;;;;;5062207;28;20271;-51
2023/03/04 04:40:27;;;;;;;14.50;4.97;;;;;;;;;;5065900;28;20232;-52
2023/03/04 04:42:54;;;;;;;7.77;4.53;;;;;;;;;;5064699;28;20231;-52
2023/03/04 04:45:20;;;;;;;11.40;5.17;;;;;;;;;;5063086;28;20238;-52
2023/03/04 04:47:48;;;;;;;7.90;3.33;;;;;;;;;;5065109;28;20239;-52
2023/03/04 04:50:15;;;;;;;9.17;4.23;;;;;;;;;;5064715;28;20318;-51
2023/03/04 04:52:41;;;;;;;11.90;4.07;;;;;;;;;;5064277;28;20232;-51
2023/03/04 04:55:08;;;;;;;9.00;4.07;;;;;;;;;;5065597;28;20847;-51
2023/03/04 04:57:35;;;;;;;11.43;4.03;;;;;;;;;;5062576;28;20241;-51
2023/03/04 05:00:02;;;;;;;13.70;4.50;;;;;;;;;;5065662;28;20379;-52
2023/03/04 05:02:28;;;;;;;12.00;4.13;;;;;;;;;;5064026;28;20230;-51
2023/03/04 05:04:56;;;;;;;9.77;4.20;;;;;;;;;;5065417;28;20375;-52
2023/03/04 05:07:23;;;;;;;14.33;4.17;;;;;;;;;;5063815;28;20654;-52
2023/03/04 05:09:49;;;;;;;9.10;4.10;;;;;;;;;;5066308;28;20754;-52
2023/03/04 05:12:16;;;;;;;6.20;3.83;;;;;;;;;;5065757;28;20239;-51
2023/03/04 05:14:42;;;;;;;9.13;5.07;;;;;;;;;;5064879;28;20935;-52
2023/03/04 05:17:09;;;;;;;11.20;4.10;;;;;;;;;;5064584;28;20873;-52
2023/03/04 05:19:35;;;;;;;7.37;3.60;;;;;;;;;;5063037;28;20230;-53
2023/03/04 05:22:08;;;;;;;8.50;3.80;;;;;;;;;;5064434;28;20251;-52
2023/03/04 05:24:35;;;;;;;8.40;3.20;;;;;;;;;;5065110;28;20238;-51
2023/03/04 05:27:02;;;;;;;8.10;4.17;;;;;;;;;;5062534;28;20262;-51
2023/03/04 05:29:28;;;;;;;11.50;3.83;;;;;;;;;;5062561;28;20739;-52
2023/03/04 05:31:55;;;;;;;8.33;4.27;;;;;;;;;;5064490;28;20314;-51
2023/03/04 05:34:21;;;;;;;7.00;4.03;;;;;;;;;;5064582;28;20288;-52
2023/03/04 05:36:48;;;;;;;9.37;3.27;;;;;;;;;;5064935;28;20273;-51
2023/03/04 05:39:16;;;;;;;10.10;4.30;;;;;;;;;;5054743;28;20725;-53
2023/03/04 05:41:43;;;;;;;6.47;3.20;;;;;;;;;;5054590;28;20235;-53
2023/03/04 05:44:09;;;;;;;8.10;4.97;;;;;;;;;;5062585;28;20306;-51
2023/03/04 05:46:36;;;;;;;8.33;3.40;;;;;;;;;;5063987;28;20318;-51
2023/03/04 05:49:03;;;;;;;7.30;3.70;;;;;;;;;;5063957;28;20239;-54
2023/03/04 05:51:30;;;;;;;11.37;4.23;;;;;;;;;;5064981;28;20709;-53
2023/03/04 05:53:56;;;;;;;7.50;3.23;;;;;;;;;;5061792;28;20230;-51
2023/03/04 05:56:24;;;;;;;9.73;3.77;;;;;;;;;;5064197;28;20235;-50
2023/03/04 05:58:51;;;;;;;9.10;4.00;;;;;;;;;;5063383;28;20232;-51
2023/03/04 06:01:18;;;;;;;5.87;2.87;;;;;;;;;;5063801;28;20235;-51
2023/03/04 06:03:47;;;;;;;7.20;3.03;;;;;;;;;;5062373;28;20230;-51
2023/03/04 06:06:13;;;;;;;7.03;2.80;;;;;;;;;;5065288;28;20231;-51
2023/03/04 06:08:40;;;;;;;8.27;3.40;;;;;;;;;;5062913;28;20244;-52
2023/03/04 06:11:07;;;;;;;11.03;3.33;;;;;;;;;;5064249;28;20234;-53
2023/03/04 06:13:35;;;;;;;9.20;2.97;;;;;;;;;;5061527;28;20740;-52
2023/03/04 06:16:02;;;;;;;5.73;3.17;;;;;;;;;;5062555;28;20234;-51
2023/03/04 06:18:28;;;;;;;9.07;4.53;;;;;;;;;;5060792;28;20227;-52
2023/03/04 06:20:58;;;;;;;9.17;2.90;;;;;;;;;;5063608;28;20242;-51
2023/03/04 06:23:25;;;;;;;8.20;3.00;;;;;;;;;;5062412;28;20243;-52
2023/03/04 06:25:52;;;;;;;6.60;2.93;;;;;;;;;;5058144;28;20234;-52
2023/03/04 06:28:18;;;;;;;10.50;3.10;;;;;;;;;;5062026;28;20242;-53
2023/03/04 06:30:46;;;;;;;6.90;3.07;;;;;;;;;;5065126;28;20223;-52
2023/03/04 06:33:13;;;;;;;5.13;2.40;;;;;;;;;;5079967;28;20242;-52
2023/03/04 06:35:39;;;;;;;7.20;2.90;;;;;;;;;;5081851;28;20249;-52
2023/03/04 06:38:06;;;;;;;5.43;2.70;;;;;;;;;;5074533;28;20291;-52
2023/03/04 06:40:33;;;;;;;4.50;2.80;;;;;;;;;;5082150;28;20234;-52
2023/03/04 06:43:00;;;;;;;9.63;3.60;;;;;;;;;;5075724;28;20753;-52
2023/03/04 06:45:26;;;;;;;6.53;3.20;;;;;;;;;;5078946;28;20231;-59
2023/03/04 06:47:54;;;;;;;6.50;3.30;;;;;;;;;;5078035;28;20376;-52
2023/03/04 06:50:21;;;;;;;10.17;3.17;;;;;;;;;;5082212;28;20232;-52
2023/03/04 06:52:48;;;;;;;11.73;3.20;;;;;;;;;;5077428;28;20250;-51
2023/03/04 06:55:14;;;;;;;9.60;3.23;;;;;;;;;;5082972;28;20237;-52
2023/03/04 06:57:41;;;;;;;13.20;3.20;;;;;;;;;;5070919;28;20242;-52
2023/03/04 07:00:08;;;;;;;4.33;2.80;;;;;;;;;;5083634;28;20268;-54
2023/03/04 07:02:34;;;;;;;4.27;3.10;;;;;;;;;;5087158;28;20256;-51
2023/03/04 07:05:02;;;;;;;4.40;2.17;;;;;;;;;;5089326;28;20246;-54
2023/03/04 07:07:29;;;;;;;7.60;2.67;;;;;;;;;;5078865;28;20716;-50
2023/03/04 07:09:56;;;;;;;5.90;2.93;;;;;;;;;;5069478;28;20265;-52
2023/03/04 07:12:22;;;;;;;8.97;3.47;;;;;;;;;;5066784;28;20269;-53
2023/03/04 07:14:49;;;;;;;8.23;2.80;;;;;;;;;;5067286;28;20237;-53
2023/03/04 07:17:15;;;;;;;8.03;3.20;;;;;;;;;;5067692;28;20241;-51
2023/03/04 07:19:42;;;;;;;5.97;3.30;;;;;;;;;;5067299;28;20250;-51
2023/03/04 07:22:10;;;;;;;5.73;2.70;;;;;;;;;;5067746;28;20322;-51
2023/03/04 07:24:36;;;;;;;4.37;3.27;;;;;;;;;;5065082;28;20299;-51
2023/03/04 07:27:03;;;;;;;8.47;3.20;;;;;;;;;;5066285;28;20219;-51
2023/03/04 07:29:29;;;;;;;4.03;2.77;;;;;;;;;;5060952;28;20239;-51
2023/03/04 07:31:56;;;;;;;4.97;2.23;;;;;;;;;;5069412;28;20246;-51
2023/03/04 07:34:23;;;;;;;6.60;2.70;;;;;;;;;;5072349;28;20254;-51
2023/03/04 07:36:49;;;;;;;3.27;2.27;;;;;;;;;;5071074;28;20284;-51
2023/03/04 07:39:17;;;;;;;6.63;2.80;;;;;;;;;;5059135;28;20247;-52
2023/03/04 07:41:44;;;;;;;5.27;2.70;;;;;;;;;;5065781;28;20230;-50
2023/03/04 07:44:11;;;;;;;8.00;2.43;;;;;;;;;;5063504;28;20231;-55
2023/03/04 07:46:38;;;;;;;8.50;3.60;;;;;;;;;;5072960;28;20266;-52
2023/03/04 07:49:05;;;;;;;5.83;2.57;;;;;;;;;;5074372;28;20235;-52
2023/03/04 07:51:31;;;;;;;4.73;2.53;;;;;;;;;;5075444;28;20232;-53
2023/03/04 07:53:58;;;;;;;3.10;2.20;;;;;;;;;;5081273;28;20254;-53
2023/03/04 07:56:27;;;;;;;7.63;2.17;;;;;;;;;;5079093;28;20231;-53
2023/03/04 07:58:55;;;;;;;7.63;2.30;;;;;;;;;;5069721;28;20239;-52
2023/03/04 08:01:22;;;;;;;6.30;2.20;;;;;;;;;;5066650;28;20238;-51
2023/03/04 08:03:49;;;;;;;7.80;2.50;;;;;;;;;;5062681;28;20250;-53
2023/03/04 08:06:16;;;;;;;8.17;2.50;;;;;;;;;;5059959;28;20241;-51
2023/03/04 08:08:43;;;;;;;2.33;1.80;;;;;;;;;;5063778;28;20234;-51
2023/03/04 08:11:10;;;;;;;3.10;2.90;;;;;;;;;;5058260;28;20266;-51
2023/03/04 08:13:38;;;;;;;2.63;1.83;;;;;;;;;;5048852;28;20235;-51
2023/03/04 08:16:05;;;;;;;3.20;1.93;;;;;;;;;;5066014;28;20240;-51
2023/03/04 08:18:32;;;;;;;2.10;1.60;;;;;;;;;;5064773;28;20315;-52
2023/03/04 08:20:58;;;;;;;7.80;1.97;;;;;;;;;;5067211;28;20254;-52
2023/03/04 08:23:25;;;;;;;4.97;2.23;;;;;;;;;;5053880;28;20236;-51
2023/03/04 08:25:52;;;;;;;7.80;2.30;;;;;;;;;;5057237;28;20262;-51
2023/03/04 08:28:18;;;;;;;3.70;1.90;;;;;;;;;;5058809;28;20327;-52
2023/03/04 08:30:52;;;;;;;5.67;1.77;;;;;;;;;;5065988;28;20227;-51
2023/03/04 08:33:18;;;;;;;4.73;2.03;;;;;;;;;;5063491;28;20234;-52
2023/03/04 08:35:45;;;;;;;4.20;1.80;;;;;;;;;;5065284;28;20243;-51
2023/03/04 08:38:12;;;;;;;4.60;1.70;;;;;;;;;;5063335;28;20227;-51
2023/03/04 08:40:38;;;;;;;4.43;2.10;;;;;;;;;;5057516;28;20241;-51
2023/03/04 08:43:05;;;;;;;6.93;1.83;;;;;;;;;;5078275;28;20235;-51
2023/03/04 08:45:31;;;;;;;4.50;1.93;;;;;;;;;;5065373;28;20292;-52
2023/03/04 08:48:00;;;;;;;3.20;1.97;;;;;;;;;;5064634;28;20245;-51
2023/03/04 08:50:26;;;;;;;7.60;1.70;;;;;;;;;;5061429;28;20239;-51
2023/03/04 08:52:53;;;;;;;5.57;1.47;;;;;;;;;;5065969;28;20245;-53
2023/03/04 08:55:20;;;;;;;5.13;1.97;;;;;;;;;;5066662;28;20231;-51
2023/03/04 08:57:46;;;;;;;9.93;2.33;;;;;;;;;;5062855;28;20238;-51
2023/03/04 09:00:13;;;;;;;11.37;1.90;;;;;;;;;;5065162;28;20705;-50
2023/03/04 09:02:40;;;;;;;10.33;2.57;;;;;;;;;;5064820;28;20249;-51
2023/03/04 09:05:09;;;;;;;3.67;2.17;;;;;;;;;;5064452;28;20258;-52
2023/03/04 09:07:35;;;;;;;8.67;2.93;;;;;;;;;;5064766;28;20235;-52
2023/03/04 09:10:02;;;;;;;4.93;2.30;;;;;;;;;;5065053;28;20235;-53
2023/03/04 09:12:29;;;;;;;5.33;2.03;;;;;;;;;;5065098;28;20325;-52
2023/03/04 09:14:55;;;;;;;2.53;2.10;;;;;;;;;;5065492;28;20310;-51
2023/03/04 09:17:22;;;;;;;6.93;2.20;;;;;;;;;;5063026;28;20230;-51
2023/03/04 09:19:48;;;;;;;4.50;1.50;;;;;;;;;;5065520;28;20235;-51
2023/03/04 09:22:16;;;;;;;5.07;1.53;;;;;;;;;;5064392;28;20258;-50
2023/03/04 09:24:43;;;;;;;3.07;2.47;;;;;;;;;;5064772;28;20227;-51
2023/03/04 09:27:09;;;;;;;10.03;2.23;;;;;;;;;;5064245;28;20739;-51
2023/03/04 09:29:36;;;;;;;2.33;1.50;;;;;;;;;;5063294;28;20241;-50
2023/03/04 09:32:02;;;;;;;4.43;1.40;;;;;;;;;;5064778;28;20235;-50
2023/03/04 09:34:29;;;;;;;2.97;2.37;;;;;;;;;;5064923;28;20704;-51
2023/03/04 09:36:56;;;;;;;5.53;1.83;;;;;;;;;;5064707;28;20242;-51
2023/03/04 09:39:24;;;;;;;5.37;2.10;;;;;;;;;;5063009;28;20235;-52
2023/03/04 09:41:55;;;;;;;6.10;3.00;;;;;;;;;;5055412;28;20725;-51
2023/03/04 09:44:23;;;;;;;4.00;1.63;;;;;;;;;;5061729;28;20250;-51
2023/03/04 09:46:50;;;;;;;8.50;1.93;;;;;;;;;;5063952;28;20318;-52
2023/03/04 09:49:18;;;;;;;3.27;2.10;;;;;;;;;;5062175;28;20235;-52
2023/03/04 09:51:48;;;;;;;10.83;1.90;;;;;;;;;;5060545;28;20619;-52
2023/03/04 09:54:18;;;;;;;14.80;3.23;;;;;;;;;;5062395;28;20238;-52
2023/03/04 09:56:46;;;;;;;4.83;1.80;;;;;;;;;;5064905;28;20235;-51
2023/03/04 09:59:18;;;;;;;8.13;1.93;;;;;;;;;;5059275;28;20235;-51
2023/03/04 10:01:48;;;;;;;6.83;2.07;;;;;;;;;;5056409;28;20238;-52
2023/03/04 10:04:17;;;;;;;3.23;1.20;;;;;;;;;;5061680;28;20223;-51
2023/03/04 10:06:45;;;;;;;4.23;1.67;;;;;;;;;;5064749;28;20242;-51
2023/03/04 10:09:14;;;;;;;5.50;2.03;;;;;;;;;;5061557;28;20306;-51
2023/03/04 10:11:42;;;;;;;5.27;1.50;;;;;;;;;;5066255;28;20246;-52
2023/03/04 10:14:21;;;;;;;6.87;2.23;;;;;;;;;;5069539;27;20235;-51
2023/03/04 10:16:49;;;;;;;6.87;2.00;;;;;;;;;;5068925;28;20238;-54
2023/03/04 10:19:22;;;;;;;5.13;2.27;;;;;;;;;;5066630;28;20651;-55
2023/03/04 10:21:50;;;;;;;10.53;2.27;;;;;;;;;;5066004;28;20231;-51
2023/03/04 10:24:17;;;;;;;3.83;1.80;;;;;;;;;;5061492;28;20678;-51
2023/03/04 10:26:45;;;;;;;5.50;1.80;;;;;;;;;;5055758;28;20243;-52
2023/03/04 10:29:14;;;;;;;8.43;2.30;;;;;;;;;;5063054;28;20267;-51
2023/03/04 10:31:42;;;;;;;4.80;1.63;;;;;;;;;;5062692;28;20262;-51
2023/03/04 10:34:10;;;;;;;8.60;2.53;;;;;;;;;;5063665;28;20653;-52
2023/03/04 10:36:41;;;;;;;7.40;2.10;;;;;;;;;;5064208;28;20241;-52
2023/03/04 10:39:09;;;;;;;6.83;1.97;;;;;;;;;;5060317;28;20245;-53
2023/03/04 10:41:36;;;;;;;6.83;2.00;;;;;;;;;;5062560;28;20646;-52
2023/03/04 10:44:03;;;;;;;6.23;1.97;;;;;;;;;;5060958;28;20655;-52
2023/03/04 10:46:30;;;;;;;5.13;2.20;;;;;;;;;;5064151;28;20254;-51
2023/03/04 10:48:58;;;;;;;9.83;2.33;;;;;;;;;;5062983;28;20345;-51
2023/03/04 10:51:26;;;;;;;7.30;2.07;;;;;;;;;;5062257;28;20239;-52
2023/03/04 10:53:56;;;;;;;9.13;2.57;;;;;;;;;;5051082;28;20224;-53
2023/03/04 10:56:32;;;;;;;7.60;2.10;;;;;;;;;;5062245;28;20231;-55
2023/03/04 10:59:24;;;;;;;9.50;2.50;;;;;;;;;;5054471;28;20229;-52
2023/03/04 11:01:50;;;;;;;12.57;2.90;;;;;;;;;;5052017;28;20235;-51
2023/03/04 11:04:18;;;;;;;6.60;2.93;;;;;;;;;;5060672;28;20791;-51
2023/03/04 11:06:45;;;;;;;12.57;2.60;;;;;;;;;;5058314;28;20273;-51
2023/03/04 11:09:21;;;;;;;7.67;1.93;;;;;;;;;;5057796;28;20278;-51
2023/03/04 11:11:49;;;;;;;10.07;3.43;;;;;;;;;;5042764;28;20330;-51
2023/03/04 11:14:19;;;;;;;12.67;2.40;;;;;;;;;;5061375;28;20296;-51
2023/03/04 11:16:52;;;;;;;8.30;2.20;;;;;;;;;;5063694;28;20756;-52
2023/03/04 11:19:21;;;;;;;10.93;3.40;;;;;;;;;;5056412;28;20669;-51
2023/03/04 11:21:49;;;;;;;6.90;3.00;;;;;;;;;;5063058;28;20239;-52
2023/03/04 11:24:17;;;;;;;6.23;2.70;;;;;;;;;;5062510;28;20315;-52
2023/03/04 11:26:46;;;;;;;13.03;2.27;;;;;;;;;;5056466;28;20322;-52
2023/03/04 11:29:15;;;;;;;16.37;3.43;;;;;;;;;;5063611;28;20235;-51
2023/03/04 11:31:46;;;;;;;7.50;2.30;;;;;;;;;;5063433;28;20314;-51
2023/03/04 11:34:15;;;;;;;11.73;3.03;;;;;;;;;;5062401;28;20231;-52
2023/03/04 11:36:50;;;;;;;12.37;3.07;;;;;;;;;;5055546;28;20227;-51
2023/03/04 11:39:20;;;;;;;9.60;3.80;;;;;;;;;;5054590;28;20231;-51
2023/03/04 11:41:50;;;;;;;11.57;2.73;;;;;;;;;;5059756;28;20672;-52
2023/03/04 11:44:16;;;;;;;6.10;2.37;;;;;;;;;;5057769;28;20227;-52
2023/03/04 11:47:00;;;;;;;14.33;3.93;;;;;;;;;;5063123;28;20246;-51
2023/03/04 11:49:43;;;;;;;10.07;2.70;;;;;;;;;;5062337;28;20259;-51
2023/03/04 11:52:19;;;;;;;9.07;3.17;;;;;;;;;;5060730;28;20245;-51
2023/03/04 11:54:49;;;;;;;10.20;3.10;;;;;;;;;;5066237;28;20367;-50
2023/03/04 11:57:21;;;;;;;7.80;2.43;;;;;;;;;;5065339;28;20231;-52
2023/03/04 11:59:54;;;;;;;12.30;2.93;;;;;;;;;;5058747;28;20235;-51
2023/03/04 12:02:21;;;;;;;11.27;3.23;;;;;;;;;;5063273;28;20235;-53
2023/03/04 12:05:12;;;;;;;12.63;3.27;;;;;;;;;;5064886;28;20241;-50
2023/03/04 12:07:56;;;;;;;8.37;3.73;;;;;;;;;;5048382;28;20233;-51
2023/03/04 12:10:29;;;;;;;10.30;3.43;;;;;;;;;;5059911;28;20318;-52
2023/03/04 12:13:05;;;;;;;5.50;2.10;;;;;;;;;;5057439;28;20266;-52
2023/03/04 12:15:35;;;;;;;4.90;2.53;;;;;;;;;;5064213;28;20230;-52
2023/03/04 12:18:10;;;;;;;9.30;2.57;;;;;;;;;;5063064;28;20235;-53
2023/03/04 12:20:47;;;;;;;6.87;2.80;;;;;;;;;;5065924;28;20231;-52
2023/03/04 12:23:22;;;;;;;8.13;2.10;;;;;;;;;;5059163;28;20254;-52
2023/03/04 12:25:56;;;;;;;9.37;2.63;;;;;;;;;;5064186;28;20246;-53
2023/03/04 12:28:26;;;;;;;7.63;2.40;;;;;;;;;;5063401;28;20227;-52
2023/03/04 12:31:02;;;;;;;13.97;2.37;;;;;;;;;;5063217;28;20235;-51
2023/03/04 12:33:34;;;;;;;8.47;2.50;;;;;;;;;;5059892;28;20236;-52
2023/03/04 12:36:07;;;;;;;4.57;2.30;;;;;;;;;;5063119;28;20235;-51
2023/03/04 12:38:43;;;;;;;5.63;2.20;;;;;;;;;;5062549;28;20235;-52
2023/03/04 12:41:20;;;;;;;9.00;1.93;;;;;;;;;;5066041;28;20230;-52
2023/03/04 12:43:50;;;;;;;8.03;2.83;;;;;;;;;;5064574;28;20288;-52
2023/03/04 12:46:26;;;;;;;6.77;2.50;;;;;;;;;;5060710;28;20857;-52
2023/03/04 12:48:56;;;;;;;5.23;1.93;;;;;;;;;;5053192;28;20235;-52
2023/03/04 12:51:26;;;;;;;6.90;2.20;;;;;;;;;;5061511;28;20253;-53
2023/03/04 12:53:58;;;;;;;7.60;2.33;;;;;;;;;;5064143;28;20232;-53
2023/03/04 12:56:27;;;;;;;6.63;2.70;;;;;;;;;;5065809;28;20595;-53
2023/03/04 12:58:54;;;;;;;10.47;2.53;;;;;;;;;;5062271;28;20265;-52
2023/03/04 13:01:23;;;;;;;7.23;2.13;;;;;;;;;;5063896;28;20713;-52
2023/03/04 13:03:53;;;;;;;5.23;2.13;;;;;;;;;;5059811;28;20255;-52
2023/03/04 13:06:28;;;;;;;9.57;2.87;;;;;;;;;;5062258;28;20288;-52
2023/03/04 13:09:02;;;;;;;8.57;2.23;;;;;;;;;;5064664;28;20680;-52
2023/03/04 13:11:46;;;;;;;3.87;1.87;;;;;;;;;;5064431;28;20246;-52
2023/03/04 13:14:25;;;;;;;14.73;3.10;;;;;;;;;;5065743;28;20634;-51
2023/03/04 13:16:53;;;;;;;9.37;2.07;;;;;;;;;;5061323;28;20325;-53
2023/03/04 13:19:34;;;;;;;9.13;2.83;;;;;;;;;;5063877;28;20288;-51
2023/03/04 13:22:01;;;;;;;7.07;2.03;;;;;;;;;;5052531;28;20231;-53
2023/03/04 13:24:47;;;;;;;8.30;2.10;;;;;;;;;;5065566;28;20804;-52
2023/03/04 13:27:28;;;;;;;6.87;2.00;;;;;;;;;;5064649;28;20713;-52
2023/03/04 13:29:56;;;;;;;5.67;1.73;;;;;;;;;;5051435;28;20234;-53
2023/03/04 13:32:35;;;;;;;6.50;1.83;;;;;;;;;;5065408;28;20235;-52
2023/03/04 13:35:02;;;;;;;5.30;2.20;;;;;;;;;;5065317;28;20604;-52
2023/03/04 13:37:30;;;;;;;7.60;2.07;;;;;;;;;;5063796;28;20300;-52
2023/03/04 13:40:15;;;;;;;6.23;2.60;;;;;;;;;;5063950;28;20290;-51
2023/03/04 13:42:42;;;;;;;6.63;2.13;;;;;;;;;;5064413;28;20267;-52
2023/03/04 13:45:23;;;;;;;5.67;2.20;;;;;;;;;;5062391;28;20516;-53
2023/03/04 13:47:51;;;;;;;6.90;2.60;;;;;;;;;;5052315;28;20232;-51
2023/03/04 13:50:35;;;;;;;9.50;1.90;;;;;;;;;;5060150;28;20973;-52
2023/03/04 13:53:17;;;;;;;4.63;1.90;;;;;;;;;;5050573;28;20239;-52
2023/03/04 13:55:43;;;;;;;9.33;2.57;;;;;;;;;;5060558;28;20242;-52
2023/03/04 13:58:16;;;;;;;10.40;2.40;;;;;;;;;;5067362;28;20313;-51
2023/03/04 14:00:51;;;;;;;5.20;2.17;;;;;;;;;;5062160;28;20245;-51
2023/03/04 14:03:23;;;;;;;11.43;4.17;;;;;;;;;;5052658;28;21026;-51
2023/03/04 14:06:05;;;;;;;9.00;2.33;;;;;;;;;;5054238;28;20227;-52
2023/03/04 14:08:31;;;;;;;10.40;2.83;;;;;;;;;;5060948;28;20231;-52
2023/03/04 14:10:58;;;;;;;6.43;3.43;;;;;;;;;;5060763;28;20245;-52
2023/03/04 14:13:26;;;;;;;10.67;3.20;;;;;;;;;;5061607;28;20235;-52
2023/03/04 14:15:57;;;;;;;6.03;2.50;;;;;;;;;;5061971;28;20293;-52
2023/03/04 14:18:25;;;;;;;12.53;2.90;;;;;;;;;;5060610;28;20231;-52
2023/03/04 14:20:57;;;;;;;10.70;2.77;;;;;;;;;;5056723;28;20232;-52
2023/03/04 14:23:26;;;;;;;10.00;2.30;;;;;;;;;;5053138;28;20239;-52
2023/03/04 14:25:52;;;;;;;9.67;3.13;;;;;;;;;;5054212;28;20935;-53
2023/03/04 14:28:20;;;;;;;9.67;2.90;;;;;;;;;;5051820;28;20236;-51
2023/03/04 14:30:51;;;;;;;9.10;2.90;;;;;;;;;;5053792;28;20258;-51
2023/03/04 14:33:21;;;;;;;4.50;2.33;;;;;;;;;;5055355;28;20245;-51
2023/03/04 14:35:50;;;;;;;9.87;2.23;;;;;;;;;;5062445;28;20227;-52
2023/03/04 14:38:20;;;;;;;10.97;2.97;;;;;;;;;;5056598;28;20745;-52
2023/03/04 14:40:49;;;;;;;9.47;3.27;;;;;;;;;;5060517;28;20720;-52
2023/03/04 14:43:16;;;;;;;5.10;2.40;;;;;;;;;;5054906;28;20262;-52